Terminal Aerodrome Forecast
Issued by NWS

Home | Current Version | Previous Version | Text Only | Print | Product List | Glossary On
Versions: 1 2 3 4 5 6 7 8 9 10 11 12 13 14 15 16 17 18
000
FTUS46 KOTX 181149 CCA
TAFMWH
TAF COR
KMWH 181149Z 1812/1912 VRB05KT 6SM -FZRAPL OVC007
     FM181700 15004KT P6SM BKN006 OVC040
     FM182100 11006KT P6SM VCSH SCT008 OVC015
     FM190600 11005KT 6SM BR OVC008=

USA.gov is the U.S. government's official web portal to all federal, state and local government web resources and services.